This is the latest recevied weather packets stored in our database for station/object KO4YAW. If no packets are shown the sender has not sent any weather packets the latest 10 day(s).
| Time | Temp. | Humidity | Pressure | Rain* | Wind** | Luminosity | Snow |
|---|---|---|---|---|---|---|---|
| 1778277780 | 20.56° C | 35% | 1014.7 hPa | 0 mm | - | 697 W/m² | - |
| 1778276880 | 20° C | 36% | 1014.9 hPa | 0 mm | - | 744 W/m² | - |
| 1778275980 | 20.56° C | 35% | 1015.1 hPa | 0 mm | - | 791 W/m² | - |
| 1778275080 | 20° C | 35% | 1015 hPa | 0 mm | - | 837 W/m² | - |
| 1778274180 | 19.44° C | 37% | 1015.3 hPa | 0 mm | - | 870 W/m² | - |
| 1778273280 | 19.44° C | 37% | 1015.4 hPa | 0 mm | - | 892 W/m² | - |
| 1778272380 | 19.44° C | 38% | 1015.6 hPa | 0 mm | - | 973 W/m² | - |
| 1778271480 | 18.89° C | 38% | 1015.7 hPa | 0 mm | - | 970 W/m² | - |
| 1778270580 | 18.33° C | 40% | 1015.8 hPa | 0 mm | - | 100 W/m² | - |
| 1778269680 | 18.89° C | 40% | 1015.9 hPa | 0 mm | - | 102 W/m² | - |
| 1778268780 | 18.33° C | 42% | 1016 hPa | 0 mm | - | 103 W/m² | - |
| 1778267880 | 17.22° C | 43% | 1016.2 hPa | 0 mm | - | 105 W/m² | - |
| 1778266980 | 17.22° C | 45% | 1016.3 hPa | 0 mm | - | 105 W/m² | - |
| 1778266080 | 17.22° C | 45% | 1016.4 hPa | 0 mm | - | 106 W/m² | - |
| 1778265180 | 17.22° C | 43% | 1016.4 hPa | 0 mm | - | 106 W/m² | - |
| 1778264280 | 17.22° C | 44% | 1016.5 hPa | 0 mm | - | 106 W/m² | - |
| 1778263380 | 16.67° C | 43% | 1016.7 hPa | 0 mm | - | 105 W/m² | - |
| 1778262480 | 16.11° C | 45% | 1016.7 hPa | 0 mm | - | 104 W/m² | - |
| 1778261580 | 16.67° C | 44% | 1016.9 hPa | 0 mm | - | 102 W/m² | - |
| 1778260680 | 16.11° C | 44% | 1016.9 hPa | 0 mm | - | 100 W/m² | - |
| 1778259780 | 15.56° C | 46% | 1017 hPa | 0 mm | - | 981 W/m² | - |
| 1778258880 | 15.56° C | 46% | 1017 hPa | 0 mm | - | 965 W/m² | - |
| 1778257980 | 14.44° C | 49% | 1017 hPa | 0 mm | - | 939 W/m² | - |
| 1778257080 | 13.89° C | 52% | 1017.3 hPa | 0 mm | - | 534 W/m² | - |
| 1778256180 | 13.89° C | 53% | 1017.2 hPa | 0 mm | - | 770 W/m² | - |
* Rain since midnight (hover to see other rain measurements)
** Current wind speed in m/s (hover to see current wind gust speed)